Ana Sayfa
METAR-TAF:

METAR-TAF

Havaalanları :

Ciudad Victoria, Meksika

Enlem: 23-43N, Boylam: 098-58W, yükseklik: 238 m

Güncel hava durumu gözlemi

Rapor saat 04:49 UTC de 7 saat ve 55 dakika önce yapıldı.
Rüzgar güney/güneydoğudan 15 kt
Sıcaklık 22°C
Nem 69%
Basınç 1013 hPa
Görüş mesafesi: 11.3 km
Açık gökyüzü

METAR: MMCV 090449Z 15015KT 7SM SKC 22/16 A2992 RMK HZY

Saat: 06:44 (12:44 UTC)

Tahmin

Rapor saat 05:13 UTC de 7 saat ve 31 dakika önce yapıldı.
Ayın 09'si saat 06 UTC'den ayın 10'si saat 06 UTC'ye kadar geçerli Tahmin
Rüzgar güney/güneydoğudan 12 kt
Görüş mesafesi: 10 km
25000 ft yükseklikte parçalı bulutlu
Ayın 09'si saat 1500 UTC'den
Rüzgar güney/güneydoğudan 20 kt
Görüş mesafesi: 10 km
25000 ft yükseklikte parçalı bulutlu
Ayın 10'si saat 0100 UTC'den
Rüzgar güney/güneydoğudan 8 kt
Görüş mesafesi: 10 km
2000 ft yükseklikte parçalı bulutlu

TAF: MMCV 090513Z 0906/1006 16012KT P6SM SCT250 FM091500 16020KT P6SM SCT250 FM100100 16008KT P6SM SCT020

4.000'den fazla havaalanı için hava durumu gözlemleri ve tahminleri (METAR ve TAF raporları).

Kullanılabilir istasyonlar harita üzerinde sarı ve kırmızı noktalarla gösterilir.

İstasyonun adını görmek için fareyi noktanın üzerinde gezdirin.

Sonrasında hava gözlem ve tahminlerini görmek için tıklayın.

Haritayı değiştirmek için: yaklaştırmak için siyah artı işaretli yeşil düğmeye ve uzaklaştırmak için de eksi işaretli düğmeye hızla tıklayın; bitişik haritalar için yeşil okları kullanın.


METAR-TAF: